Time;durP1;ratioP1;P1;durP2;ratioP2;P2;SDS_P1;SDS_P2;PMS_P1;PMS_P2;Temp;Humidity;BMP_temperature;BMP_pressure;BME280_temperature;BME280_humidity;BME280_pressure;Samples;Min_cycle;Max_cycle;Signal;HPM_P1;HPM_P2
2023/01/10 00:01:39;;;;;;;3.90;2.87;;;5.00;99.90;;;;;;5025961;28;20486;-69
2023/01/10 00:04:06;;;;;;;7.40;3.17;;;5.00;99.90;;;;;;5023920;28;20805;-70
2023/01/10 00:06:32;;;;;;;6.90;2.63;;;5.00;99.90;;;;;;5018967;28;20458;-70
2023/01/10 00:08:59;;;;;;;3.10;2.80;;;5.00;99.90;;;;;;5021247;28;20586;-69
2023/01/10 00:14:11;;;;;;;7.80;3.00;;;5.10;99.90;;;;;;5027913;28;20444;-69
2023/01/10 00:16:39;;;;;;;4.63;3.20;;;5.10;99.90;;;;;;5023956;28;20457;-70
2023/01/10 00:19:07;;;;;;;3.77;3.47;;;5.10;99.90;;;;;;5020293;28;20984;-70
2023/01/10 00:21:33;;;;;;;4.03;3.27;;;5.10;99.90;;;;;;5016045;28;20503;-70
2023/01/10 00:24:15;;;;;;;6.53;3.37;;;5.10;99.90;;;;;;5017884;28;20458;-70
2023/01/10 00:26:42;;;;;;;6.83;3.80;;;5.10;99.90;;;;;;5026806;28;20467;-70
2023/01/10 00:29:09;;;;;;;3.57;3.20;;;5.20;99.90;;;;;;5030118;28;20910;-69
2023/01/10 00:31:37;;;;;;;5.83;4.27;;;5.20;99.90;;;;;;5020029;28;20982;-70
2023/01/10 00:34:04;;;;;;;8.50;3.73;;;5.20;99.90;;;;;;5018881;28;20454;-70
2023/01/10 00:36:30;;;;;;;5.23;4.10;;;5.20;99.90;;;;;;5023682;28;20459;-70
2023/01/10 00:38:57;;;;;;;11.60;3.80;;;5.20;99.90;;;;;;5029521;28;20873;-70
2023/01/10 00:44:08;;;;;;;5.20;3.67;;;5.10;99.90;;;;;;5028980;28;20525;-69
2023/01/10 00:46:35;;;;;;;4.80;4.23;;;5.10;99.90;;;;;;5035548;28;20813;-69
2023/01/10 00:49:08;;;;;;;6.30;3.90;;;5.20;99.90;;;;;;5027850;28;20516;-70
2023/01/10 00:51:35;;;;;;;6.80;4.17;;;5.20;99.90;;;;;;5034039;28;20627;-70
2023/01/10 00:54:01;;;;;;;6.40;3.70;;;5.20;99.90;;;;;;5033254;28;20458;-70
2023/01/10 00:56:28;;;;;;;6.80;4.30;;;5.20;99.90;;;;;;5030562;28;20484;-70
2023/01/10 00:58:54;;;;;;;6.07;4.10;;;5.20;99.90;;;;;;5028030;28;20487;-69
2023/01/10 01:01:21;;;;;;;5.17;3.50;;;5.20;99.90;;;;;;5031122;28;20489;-69
2023/01/10 01:03:48;;;;;;;5.07;4.60;;;5.20;99.90;;;;;;5036786;28;20527;-70
2023/01/10 01:06:16;;;;;;;4.87;3.93;;;5.20;99.90;;;;;;5034601;28;20453;-70
2023/01/10 01:08:42;;;;;;;8.13;3.60;;;5.30;99.90;;;;;;5030533;28;20881;-69
2023/01/10 01:11:09;;;;;;;5.00;3.50;;;5.30;99.90;;;;;;5031762;28;20478;-70
2023/01/10 01:13:36;;;;;;;5.90;3.23;;;5.30;99.90;;;;;;5023168;28;20486;-69
2023/01/10 01:16:02;;;;;;;10.13;3.70;;;5.30;99.90;;;;;;5025271;28;20450;-70
2023/01/10 01:18:29;;;;;;;6.20;3.57;;;5.30;99.90;;;;;;5032894;28;20544;-69
2023/01/10 01:20:59;;;;;;;4.00;3.37;;;5.30;99.90;;;;;;5031742;28;20508;-70
2023/01/10 01:23:28;;;;;;;5.30;3.73;;;5.30;99.90;;;;;;5028701;28;20874;-69
2023/01/10 01:25:55;;;;;;;10.83;4.00;;;5.30;99.90;;;;;;5025607;28;20466;-69
2023/01/10 01:28:22;;;;;;;7.60;4.30;;;5.20;99.90;;;;;;5026467;28;20454;-69
2023/01/10 01:30:50;;;;;;;6.37;3.80;;;5.20;99.90;;;;;;5023486;28;20473;-69
2023/01/10 01:33:17;;;;;;;4.37;3.60;;;5.20;99.90;;;;;;5030278;28;20497;-69
2023/01/10 01:35:45;;;;;;;4.83;4.10;;;5.20;99.90;;;;;;5030331;28;20501;-69
2023/01/10 01:38:12;;;;;;;7.30;3.90;;;5.20;99.90;;;;;;5027449;28;20485;-69
2023/01/10 01:40:40;;;;;;;9.30;4.30;;;5.20;99.90;;;;;;5022490;28;20474;-70
2023/01/10 01:43:21;;;;;;;9.80;4.10;;;5.10;99.90;;;;;;5023782;28;21070;-69
2023/01/10 01:45:48;;;;;;;8.40;4.80;;;5.10;99.90;;;;;;5030972;28;20462;-69
2023/01/10 01:48:21;;;;;;;11.00;4.87;;;5.10;99.90;;;;;;5026007;28;20453;-69
2023/01/10 01:50:53;;;;;;;7.73;4.23;;;5.10;99.90;;;;;;5024524;28;20898;-70
2023/01/10 01:53:23;;;;;;;6.07;4.30;;;5.10;99.90;;;;;;5020013;28;20545;-69
2023/01/10 01:55:54;;;;;;;7.80;4.20;;;5.00;99.90;;;;;;5020571;28;20461;-69
2023/01/10 01:58:25;;;;;;;12.13;4.60;;;5.00;99.90;;;;;;5018272;28;20512;-70
2023/01/10 02:00:52;;;;;;;10.47;4.93;;;5.00;99.90;;;;;;5030240;28;20470;-70
2023/01/10 02:03:19;;;;;;;11.97;4.47;;;5.00;99.90;;;;;;5028164;28;20453;-70
2023/01/10 02:05:46;;;;;;;7.90;4.63;;;5.00;99.90;;;;;;5022156;28;20462;-69
2023/01/10 02:08:13;;;;;;;6.33;4.37;;;5.00;99.90;;;;;;5019625;28;20877;-69
2023/01/10 02:10:47;;;;;;;6.30;4.87;;;5.00;99.90;;;;;;5025627;28;20481;-69
2023/01/10 02:13:18;;;;;;;6.07;4.57;;;5.00;99.90;;;;;;5032823;28;20583;-69
2023/01/10 02:15:45;;;;;;;11.47;4.97;;;5.10;99.90;;;;;;5028020;28;20532;-69
2023/01/10 02:18:12;;;;;;;8.00;4.73;;;5.00;99.90;;;;;;5028792;28;20511;-70
2023/01/10 02:20:53;;;;;;;10.03;4.43;;;5.00;99.90;;;;;;5024413;28;21048;-70
2023/01/10 02:24:08;;;;;;;8.10;4.03;;;5.00;99.90;;;;;;5017983;28;20458;-69
2023/01/10 02:26:56;;;;;;;4.27;3.80;;;5.00;99.90;;;;;;5008659;28;20523;-69
2023/01/10 02:29:59;;;;;;;8.17;3.83;;;5.00;99.90;;;;;;5027036;28;20877;-69
2023/01/10 02:32:38;;;;;;;10.00;3.80;;;5.00;99.90;;;;;;5024975;28;20491;-70
2023/01/10 02:35:20;;;;;;;7.20;4.10;;;5.00;99.90;;;;;;5024255;28;20501;-70
2023/01/10 02:37:57;;;;;;;6.17;4.00;;;5.00;99.90;;;;;;5022450;28;20894;-69
2023/01/10 02:40:30;;;;;;;8.57;4.27;;;5.00;99.90;;;;;;5028095;28;20473;-70
2023/01/10 02:43:06;;;;;;;7.10;4.30;;;5.00;99.90;;;;;;5026675;28;20450;-70
2023/01/10 02:45:38;;;;;;;8.23;4.40;;;5.00;99.90;;;;;;5023530;28;20587;-69
2023/01/10 02:48:06;;;;;;;3.87;3.53;;;5.00;99.90;;;;;;5019005;28;20517;-69
2023/01/10 02:50:53;;;;;;;4.97;3.83;;;5.00;99.90;;;;;;5016617;28;20533;-69
2023/01/10 02:53:24;;;;;;;7.57;3.60;;;5.00;99.90;;;;;;5024342;28;20489;-70
2023/01/10 02:56:12;;;;;;;6.37;4.33;;;4.90;99.90;;;;;;5026182;28;20462;-69
2023/01/10 02:58:58;;;;;;;9.03;4.87;;;5.00;99.90;;;;;;5023343;28;20523;-69
2023/01/10 03:01:34;;;;;;;10.43;4.00;;;4.90;99.90;;;;;;5020895;28;20481;-69
2023/01/10 03:04:10;;;;;;;8.27;4.43;;;4.90;99.90;;;;;;5014783;28;20501;-69
2023/01/10 03:06:44;;;;;;;8.50;4.30;;;4.90;99.90;;;;;;5027990;28;20461;-70
2023/01/10 03:09:20;;;;;;;8.77;4.30;;;4.90;99.90;;;;;;5026443;28;20456;-69
2023/01/10 03:11:48;;;;;;;8.40;4.40;;;4.90;99.90;;;;;;5025866;28;21043;-69
2023/01/10 03:14:19;;;;;;;9.33;4.20;;;4.90;99.90;;;;;;5018732;28;20486;-70
2023/01/10 03:16:51;;;;;;;6.70;4.50;;;4.90;99.90;;;;;;5017272;28;20450;-70
2023/01/10 03:19:22;;;;;;;9.60;3.67;;;4.80;99.90;;;;;;5018733;28;20461;-69
2023/01/10 03:21:54;;;;;;;5.40;3.90;;;4.80;99.90;;;;;;5026694;28;20521;-70
2023/01/10 03:24:26;;;;;;;6.63;4.10;;;4.80;99.90;;;;;;5021991;28;20489;-70
2023/01/10 03:26:57;;;;;;;6.33;4.50;;;4.80;99.90;;;;;;5027958;28;20958;-69
2023/01/10 03:29:28;;;;;;;7.67;4.17;;;4.70;99.90;;;;;;5024643;28;20964;-70
2023/01/10 03:31:57;;;;;;;8.00;4.50;;;4.80;99.90;;;;;;5022441;28;20524;-69
2023/01/10 03:34:26;;;;;;;14.83;5.00;;;4.70;99.90;;;;;;5019800;28;20520;-69
2023/01/10 03:37:00;;;;;;;9.47;4.50;;;4.70;99.90;;;;;;5025753;28;20459;-70
2023/01/10 03:39:33;;;;;;;5.40;3.50;;;4.70;99.90;;;;;;5018554;28;20962;-69
2023/01/10 03:42:07;;;;;;;9.50;4.70;;;4.70;99.90;;;;;;5016586;28;20466;-69
2023/01/10 03:44:43;;;;;;;12.03;4.73;;;4.70;99.90;;;;;;5014593;28;20454;-69
2023/01/10 03:47:15;;;;;;;9.90;4.70;;;4.70;99.90;;;;;;5024530;28;20872;-69
2023/01/10 03:49:47;;;;;;;8.37;4.03;;;4.70;99.90;;;;;;5023897;28;20457;-69
2023/01/10 03:52:17;;;;;;;9.67;3.90;;;4.70;99.90;;;;;;5022454;28;20450;-70
2023/01/10 03:54:45;;;;;;;19.87;4.40;;;4.70;99.90;;;;;;5018306;28;20874;-70
2023/01/10 03:57:16;;;;;;;8.90;3.60;;;4.70;99.90;;;;;;5014323;28;20939;-69
2023/01/10 03:59:43;;;;;;;10.07;3.87;;;4.70;99.90;;;;;;5022924;28;20488;-69
2023/01/10 04:02:10;;;;;;;8.93;3.80;;;4.70;99.90;;;;;;5027445;28;20816;-69
2023/01/10 04:04:36;;;;;;;19.93;3.93;;;4.70;99.90;;;;;;5023226;28;21004;-69
2023/01/10 04:07:04;;;;;;;12.43;4.50;;;4.70;99.90;;;;;;5018360;28;20521;-69
2023/01/10 04:09:31;;;;;;;10.23;3.57;;;4.70;99.90;;;;;;5021707;28;20500;-69
2023/01/10 04:11:57;;;;;;;12.90;4.20;;;4.70;99.90;;;;;;5023351;28;20473;-69
2023/01/10 04:14:24;;;;;;;8.77;3.90;;;4.70;99.90;;;;;;5028181;28;20939;-69
2023/01/10 04:16:51;;;;;;;16.30;4.20;;;4.70;99.90;;;;;;5022394;28;20463;-70
2023/01/10 04:19:17;;;;;;;11.27;3.70;;;4.80;99.90;;;;;;5020895;28;21048;-69
2023/01/10 04:21:44;;;;;;;11.93;4.13;;;4.80;99.90;;;;;;5017142;28;20474;-69
2023/01/10 04:24:12;;;;;;;6.83;3.50;;;4.80;99.90;;;;;;5013861;28;20910;-69
2023/01/10 04:26:39;;;;;;;13.17;4.47;;;4.80;99.90;;;;;;5026294;28;21139;-69
2023/01/10 04:29:05;;;;;;;7.60;3.83;;;4.90;99.90;;;;;;5025341;28;20458;-70
2023/01/10 04:31:32;;;;;;;11.23;4.00;;;4.90;99.90;;;;;;5021340;28;20478;-69
2023/01/10 04:33:59;;;;;;;5.67;3.80;;;5.00;99.90;;;;;;5022809;28;20486;-69
2023/01/10 04:36:26;;;;;;;11.17;3.50;;;5.00;99.90;;;;;;5023456;28;20969;-69
2023/01/10 04:38:53;;;;;;;8.27;3.53;;;5.00;99.90;;;;;;5022605;28;20459;-70
2023/01/10 04:41:21;;;;;;;23.00;4.10;;;5.00;99.90;;;;;;5027286;28;20489;-70
2023/01/10 04:43:48;;;;;;;6.37;3.50;;;5.00;99.90;;;;;;5022449;28;20450;-69
2023/01/10 04:46:15;;;;;;;10.37;3.90;;;5.00;99.90;;;;;;5021986;28;20540;-70
2023/01/10 04:48:41;;;;;;;11.07;3.80;;;5.00;99.90;;;;;;5017458;28;20458;-69
2023/01/10 04:51:08;;;;;;;8.43;3.33;;;5.00;99.90;;;;;;5022625;28;20571;-69
2023/01/10 04:53:35;;;;;;;11.77;3.10;;;5.00;99.90;;;;;;5028283;28;20586;-69
2023/01/10 04:56:03;;;;;;;9.83;3.40;;;5.00;99.90;;;;;;5023258;28;20451;-70
2023/01/10 04:58:32;;;;;;;13.47;3.73;;;5.00;99.90;;;;;;5021544;28;20533;-69
2023/01/10 05:00:59;;;;;;;5.50;2.70;;;5.00;99.90;;;;;;5017579;28;20470;-69
2023/01/10 05:03:26;;;;;;;8.37;3.23;;;4.90;99.90;;;;;;5021200;28;21012;-69
2023/01/10 05:05:52;;;;;;;11.10;3.57;;;4.90;99.90;;;;;;5020132;28;20619;-69
2023/01/10 05:08:19;;;;;;;12.43;4.23;;;4.80;99.90;;;;;;5026126;28;21079;-69
2023/01/10 05:10:45;;;;;;;18.50;5.90;;;4.80;99.90;;;;;;5023277;28;20465;-70
2023/01/10 05:13:12;;;;;;;11.07;4.53;;;4.80;99.90;;;;;;5019364;28;20494;-71
2023/01/10 05:15:40;;;;;;;12.50;3.63;;;4.70;99.90;;;;;;5020254;28;20500;-71
2023/01/10 05:18:06;;;;;;;12.47;3.60;;;4.70;99.90;;;;;;5019339;28;20507;-70
2023/01/10 05:20:33;;;;;;;7.37;3.97;;;4.80;99.90;;;;;;5025919;28;20485;-70
2023/01/10 05:23:00;;;;;;;14.80;3.97;;;4.80;99.90;;;;;;5026589;28;20464;-70
2023/01/10 05:25:27;;;;;;;8.10;3.50;;;4.90;99.90;;;;;;5030180;28;20462;-69
2023/01/10 05:27:54;;;;;;;8.30;3.83;;;4.90;99.90;;;;;;5020393;28;20458;-70
2023/01/10 05:30:21;;;;;;;6.20;3.20;;;4.90;99.90;;;;;;5019398;28;20481;-70
2023/01/10 05:32:49;;;;;;;8.03;3.80;;;4.90;99.90;;;;;;5032289;28;20470;-70
2023/01/10 05:35:16;;;;;;;10.57;2.93;;;4.90;99.90;;;;;;5030205;28;20504;-70
2023/01/10 05:37:42;;;;;;;6.20;3.20;;;4.90;99.90;;;;;;5026259;28;20464;-70
2023/01/10 05:40:10;;;;;;;10.60;2.67;;;4.90;99.90;;;;;;5027170;28;20898;-70
2023/01/10 05:42:37;;;;;;;4.80;2.80;;;4.90;99.90;;;;;;5023630;28;20981;-70
2023/01/10 05:45:04;;;;;;;7.00;3.10;;;4.90;99.90;;;;;;5025515;28;21031;-70
2023/01/10 05:47:31;;;;;;;10.80;3.20;;;4.90;99.90;;;;;;5031097;28;20511;-70
2023/01/10 05:49:59;;;;;;;4.33;2.40;;;4.80;99.90;;;;;;5025528;28;20478;-70
2023/01/10 05:52:25;;;;;;;8.00;3.50;;;4.80;99.90;;;;;;5020446;28;20459;-70
2023/01/10 05:54:52;;;;;;;9.73;3.10;;;4.90;99.90;;;;;;5021114;28;20489;-70
2023/01/10 05:57:20;;;;;;;9.50;3.13;;;4.80;99.90;;;;;;5019909;28;20447;-70
2023/01/10 05:59:47;;;;;;;8.40;3.27;;;4.80;99.90;;;;;;5028222;28;20473;-70
2023/01/10 06:02:13;;;;;;;7.70;3.00;;;4.80;99.90;;;;;;5027557;28;20461;-69
2023/01/10 06:04:40;;;;;;;11.23;3.20;;;4.90;99.90;;;;;;5024928;28;20866;-70
2023/01/10 06:07:08;;;;;;;10.50;3.17;;;4.90;99.90;;;;;;5023172;28;20856;-69
2023/01/10 06:09:35;;;;;;;7.63;3.10;;;4.90;99.90;;;;;;5018719;28;20454;-69
2023/01/10 06:12:02;;;;;;;7.80;3.27;;;4.90;99.90;;;;;;5016767;28;20442;-69
2023/01/10 06:14:28;;;;;;;7.87;3.00;;;4.90;99.90;;;;;;5029901;28;21017;-70
2023/01/10 06:16:55;;;;;;;16.87;3.53;;;4.90;99.90;;;;;;5024771;28;20519;-71
2023/01/10 06:19:21;;;;;;;13.90;3.63;;;4.90;99.90;;;;;;5022442;28;20474;-70
2023/01/10 06:21:48;;;;;;;12.60;3.50;;;4.90;99.90;;;;;;5024332;28;20523;-70
2023/01/10 06:24:17;;;;;;;7.43;2.80;;;4.90;99.90;;;;;;5018823;28;20447;-71
2023/01/10 06:26:44;;;;;;;3.57;3.00;;;4.90;99.90;;;;;;5028161;28;20449;-70
2023/01/10 06:29:11;;;;;;;4.77;3.60;;;4.90;99.90;;;;;;5027251;28;20525;-70
2023/01/10 06:31:37;;;;;;;11.77;3.20;;;4.90;99.90;;;;;;5028189;28;20469;-70
2023/01/10 06:34:04;;;;;;;7.10;2.90;;;4.90;99.90;;;;;;5022769;28;21052;-70
2023/01/10 06:36:31;;;;;;;12.20;3.20;;;4.90;99.90;;;;;;5018223;28;20463;-71
2023/01/10 06:38:57;;;;;;;8.53;2.60;;;5.00;99.90;;;;;;5027627;28;20463;-70
2023/01/10 06:41:25;;;;;;;15.10;3.80;;;4.90;99.90;;;;;;5028423;28;20482;-70
2023/01/10 06:43:52;;;;;;;10.50;3.50;;;4.90;99.90;;;;;;5024206;28;20453;-70
2023/01/10 06:46:19;;;;;;;7.97;3.50;;;4.90;99.90;;;;;;5025018;28;20462;-70
2023/01/10 06:48:47;;;;;;;10.57;3.40;;;4.90;99.90;;;;;;5023178;28;20465;-70
2023/01/10 06:51:15;;;;;;;14.73;3.90;;;4.90;99.90;;;;;;5013739;28;21048;-70
2023/01/10 06:53:42;;;;;;;12.73;4.17;;;4.90;99.90;;;;;;5027270;28;20494;-71
2023/01/10 06:56:09;;;;;;;14.80;3.53;;;4.80;99.90;;;;;;5025682;28;20451;-70
2023/01/10 06:58:38;;;;;;;10.70;4.03;;;4.80;99.90;;;;;;5024708;28;20453;-70
2023/01/10 07:01:05;;;;;;;10.47;3.47;;;4.80;99.90;;;;;;5024984;28;20470;-70
2023/01/10 07:03:32;;;;;;;13.13;3.50;;;4.80;99.90;;;;;;5020950;28;20466;-71
2023/01/10 07:06:01;;;;;;;28.83;4.50;;;4.80;99.90;;;;;;5022774;28;20466;-71
2023/01/10 07:08:27;;;;;;;10.17;4.60;;;4.90;99.90;;;;;;5029164;28;20454;-70
2023/01/10 07:10:57;;;;;;;13.13;4.30;;;4.90;99.90;;;;;;5024491;28;20489;-70
2023/01/10 07:13:23;;;;;;;7.80;3.67;;;4.90;99.90;;;;;;5024058;28;20454;-71
2023/01/10 07:15:51;;;;;;;12.53;3.33;;;4.90;99.90;;;;;;5026300;28;20465;-71
2023/01/10 07:18:18;;;;;;;9.57;3.70;;;4.90;99.90;;;;;;5027858;28;20462;-71
2023/01/10 07:20:45;;;;;;;8.30;4.13;;;4.90;99.90;;;;;;5027146;28;20551;-71
2023/01/10 07:23:11;;;;;;;8.63;3.93;;;4.90;99.90;;;;;;5027981;28;20465;-71
2023/01/10 07:25:38;;;;;;;9.80;3.70;;;4.90;99.90;;;;;;5027590;28;20512;-71
2023/01/10 07:28:05;;;;;;;16.60;4.23;;;4.90;99.90;;;;;;5028349;28;20532;-71
2023/01/10 07:30:31;;;;;;;15.97;4.40;;;4.90;99.90;;;;;;5027317;28;20481;-70
2023/01/10 07:33:02;;;;;;;15.33;4.10;;;5.00;99.90;;;;;;5027566;28;20465;-71
2023/01/10 07:35:29;;;;;;;17.30;4.10;;;4.90;99.90;;;;;;5026742;28;20496;-71
2023/01/10 07:37:58;;;;;;;10.47;3.53;;;4.90;99.90;;;;;;5026886;28;21011;-68
2023/01/10 07:40:25;;;;;;;14.90;3.80;;;4.90;99.90;;;;;;5027704;28;20477;-71
2023/01/10 07:42:56;;;;;;;14.60;3.57;;;4.90;99.90;;;;;;5027612;28;20458;-71
2023/01/10 07:45:23;;;;;;;9.53;4.17;;;4.80;99.90;;;;;;5025544;28;20454;-71
2023/01/10 07:47:49;;;;;;;13.20;4.57;;;4.80;99.90;;;;;;5026793;28;20454;-72
2023/01/10 07:50:17;;;;;;;9.40;3.50;;;4.80;99.90;;;;;;5027020;28;20902;-72
2023/01/10 07:52:44;;;;;;;15.60;3.30;;;4.80;99.90;;;;;;5027375;28;20516;-72
2023/01/10 07:55:11;;;;;;;16.53;5.13;;;4.80;99.90;;;;;;5026703;28;20542;-71
2023/01/10 07:57:38;;;;;;;12.80;3.97;;;4.80;99.90;;;;;;5027824;28;20466;-71
2023/01/10 08:00:05;;;;;;;17.27;3.53;;;4.70;99.90;;;;;;5026194;28;20470;-72
2023/01/10 08:02:32;;;;;;;9.47;3.57;;;4.80;99.90;;;;;;5026916;28;20458;-71
2023/01/10 08:04:58;;;;;;;16.03;4.30;;;4.80;99.90;;;;;;5026518;28;20445;-71
2023/01/10 08:07:29;;;;;;;11.70;4.67;;;4.80;99.90;;;;;;5027550;28;20454;-71
2023/01/10 08:09:55;;;;;;;14.03;3.43;;;4.80;99.90;;;;;;5025508;28;20482;-71
2023/01/10 08:12:23;;;;;;;19.77;4.37;;;4.90;99.90;;;;;;5027457;28;20496;-71
2023/01/10 08:14:50;;;;;;;9.23;3.63;;;4.90;99.90;;;;;;5026254;28;20482;-71
2023/01/10 08:17:17;;;;;;;13.73;3.90;;;4.90;99.90;;;;;;5026154;28;20532;-71
2023/01/10 08:19:43;;;;;;;10.80;3.30;;;4.90;99.90;;;;;;5027628;28;20523;-71
2023/01/10 08:22:10;;;;;;;12.30;3.40;;;5.00;99.90;;;;;;5027078;28;20540;-71
2023/01/10 08:24:38;;;;;;;9.23;2.83;;;5.00;99.90;;;;;;5025858;28;20961;-71
2023/01/10 08:27:04;;;;;;;8.70;3.60;;;5.00;99.90;;;;;;5026428;28;20536;-71
2023/01/10 08:29:31;;;;;;;21.90;3.60;;;5.00;99.90;;;;;;5026263;28;20817;-71
2023/01/10 08:31:58;;;;;;;12.10;3.80;;;5.10;99.90;;;;;;5026220;28;20486;-71
2023/01/10 08:34:26;;;;;;;13.57;3.33;;;5.10;99.90;;;;;;5026372;28;20482;-72
2023/01/10 08:36:53;;;;;;;12.03;4.23;;;5.10;99.90;;;;;;5025204;28;20453;-71
2023/01/10 08:39:21;;;;;;;12.00;3.60;;;5.20;99.90;;;;;;5025659;28;20519;-70
2023/01/10 08:41:49;;;;;;;13.37;3.00;;;5.20;99.90;;;;;;5025885;28;21764;-71
2023/01/10 08:44:16;;;;;;;8.83;3.90;;;5.20;99.90;;;;;;5027029;28;20961;-69
2023/01/10 08:46:42;;;;;;;11.43;3.10;;;5.30;99.90;;;;;;5026649;28;20461;-70
2023/01/10 08:49:09;;;;;;;11.10;3.27;;;5.30;99.90;;;;;;5026715;28;20507;-71
2023/01/10 08:51:36;;;;;;;8.63;2.80;;;5.30;99.90;;;;;;5026349;28;20481;-70
2023/01/10 08:54:03;;;;;;;14.70;3.47;;;5.40;99.90;;;;;;5026579;28;20457;-70
2023/01/10 08:56:30;;;;;;;14.97;3.43;;;5.60;99.90;;;;;;5026877;28;20465;-71
2023/01/10 08:58:58;;;;;;;10.47;3.00;;;5.80;99.90;;;;;;5028815;28;20446;-69
2023/01/10 09:01:24;;;;;;;17.80;3.20;;;6.00;99.90;;;;;;5028447;28;20551;-70
2023/01/10 09:03:51;;;;;;;6.10;3.07;;;6.20;99.90;;;;;;5028149;28;20995;-70
2023/01/10 09:06:18;;;;;;;11.27;3.10;;;6.40;99.90;;;;;;5027830;28;20453;-70
2023/01/10 09:08:44;;;;;;;9.37;2.90;;;6.40;99.90;;;;;;5028054;28;20484;-72
2023/01/10 09:11:11;;;;;;;9.10;3.67;;;6.40;99.90;;;;;;5029776;28;20548;-71
2023/01/10 09:13:39;;;;;;;12.67;3.53;;;6.60;99.90;;;;;;5028831;28;20495;-70
2023/01/10 09:16:07;;;;;;;13.00;3.37;;;6.80;99.90;;;;;;5027823;28;21040;-71
2023/01/10 09:18:34;;;;;;;6.67;2.70;;;6.90;99.90;;;;;;5030435;28;20516;-71
2023/01/10 09:21:01;;;;;;;15.20;3.07;;;7.10;99.90;;;;;;5029716;28;20500;-71
2023/01/10 09:23:28;;;;;;;11.33;2.90;;;7.50;99.90;;;;;;5030540;28;20964;-70
2023/01/10 09:25:56;;;;;;;9.50;3.20;;;7.60;99.90;;;;;;5030037;28;20453;-71
2023/01/10 09:28:24;;;;;;;12.90;3.00;;;7.60;99.90;;;;;;5028950;28;20488;-70
2023/01/10 09:30:51;;;;;;;7.73;2.60;;;7.90;99.90;;;;;;5028843;28;21790;-71
2023/01/10 09:33:19;;;;;;;7.80;2.90;;;7.80;99.90;;;;;;5029805;28;20457;-70
2023/01/10 09:35:46;;;;;;;13.80;2.77;;;7.70;99.90;;;;;;5029593;28;20887;-71
2023/01/10 09:38:14;;;;;;;12.30;3.40;;;8.00;99.90;;;;;;5030398;28;20442;-70
2023/01/10 09:41:06;;;;;;;18.00;4.13;;;8.10;99.90;;;;;;5027690;28;20496;-70
2023/01/10 09:43:42;;;;;;;12.80;3.23;;;8.00;99.90;;;;;;5030243;28;20849;-70
2023/01/10 09:46:15;;;;;;;15.33;3.93;;;8.20;99.90;;;;;;5027430;28;20495;-71
2023/01/10 09:48:52;;;;;;;11.53;2.93;;;8.40;99.90;;;;;;5030342;28;20449;-70
2023/01/10 09:51:30;;;;;;;14.23;2.97;;;8.60;99.90;;;;;;5029199;28;20469;-71
2023/01/10 09:53:59;;;;;;;7.43;2.90;;;8.70;99.90;;;;;;5029216;28;20449;-70
2023/01/10 09:56:28;;;;;;;10.07;2.70;;;8.90;99.90;;;;;;5029176;28;20481;-70
2023/01/10 09:58:55;;;;;;;11.53;3.27;;;9.10;99.90;;;;;;5029373;28;20458;-70
2023/01/10 10:01:26;;;;;;;10.50;2.77;;;8.70;99.90;;;;;;5029057;28;21038;-70
2023/01/10 10:04:02;;;;;;;19.83;3.77;;;8.30;99.90;;;;;;5028734;28;20484;-70
2023/01/10 10:06:29;;;;;;;14.93;2.93;;;7.80;99.90;;;;;;5027407;28;21004;-70
2023/01/10 10:08:57;;;;;;;18.73;3.37;;;7.40;99.90;;;;;;5027407;28;20454;-70
2023/01/10 10:11:49;;;;;;;15.03;2.73;;;7.30;99.90;;;;;;5028960;28;20477;-70
2023/01/10 10:14:31;;;;;;;10.53;2.70;;;7.20;99.90;;;;;;5028953;28;20481;-71
2023/01/10 10:17:11;;;;;;;21.93;3.90;;;7.00;99.90;;;;;;5028949;28;20488;-70
2023/01/10 10:20:00;;;;;;;8.30;2.57;;;6.80;99.90;;;;;;5028512;28;20516;-71
2023/01/10 10:22:37;;;;;;;15.83;3.37;;;6.80;99.90;;;;;;5028484;28;20500;-71
2023/01/10 10:25:15;;;;;;;14.53;3.77;;;6.70;99.90;;;;;;5026180;28;20450;-70
2023/01/10 10:27:56;;;;;;;10.13;3.70;;;6.70;99.90;;;;;;5028620;28;21003;-70
2023/01/10 10:30:34;;;;;;;8.77;3.07;;;6.60;99.90;;;;;;5027906;28;20535;-70
2023/01/10 10:33:14;;;;;;;5.90;3.00;;;6.60;99.90;;;;;;5027833;28;21181;-71
2023/01/10 10:35:49;;;;;;;10.77;2.70;;;6.60;99.90;;;;;;5028391;28;20562;-70
2023/01/10 10:38:22;;;;;;;12.17;2.73;;;6.60;99.90;;;;;;5028424;28;20531;-70
2023/01/10 10:40:50;;;;;;;12.13;3.40;;;6.60;99.90;;;;;;5027459;28;20478;-70
2023/01/10 10:43:20;;;;;;;14.77;3.27;;;6.60;99.90;;;;;;5028416;28;20948;-69
2023/01/10 10:45:51;;;;;;;10.60;3.53;;;6.60;99.90;;;;;;5028309;28;20864;-70
2023/01/10 10:48:23;;;;;;;12.13;3.23;;;6.60;99.90;;;;;;5028818;28;20512;-70
2023/01/10 10:50:59;;;;;;;16.13;2.80;;;6.70;99.90;;;;;;5027527;28;20477;-70
2023/01/10 10:53:26;;;;;;;8.17;2.60;;;6.80;99.90;;;;;;5028775;28;20450;-70
2023/01/10 10:55:53;;;;;;;16.87;3.30;;;6.70;99.90;;;;;;5027690;28;20521;-70
2023/01/10 10:58:20;;;;;;;13.90;3.50;;;6.70;99.90;;;;;;5027734;28;20454;-70
2023/01/10 11:00:47;;;;;;;11.20;2.80;;;6.70;99.90;;;;;;5027726;28;20481;-70
2023/01/10 11:03:27;;;;;;;17.30;3.33;;;6.80;99.90;;;;;;5027291;28;20469;-70
2023/01/10 11:05:55;;;;;;;20.73;3.40;;;6.70;99.90;;;;;;5027074;28;20457;-70
2023/01/10 11:08:23;;;;;;;14.23;2.47;;;6.80;99.90;;;;;;5027486;28;20941;-70
2023/01/10 11:10:54;;;;;;;16.37;2.63;;;7.00;99.90;;;;;;5027251;28;20478;-69
2023/01/10 11:13:31;;;;;;;11.10;2.80;;;7.00;99.90;;;;;;5028255;28;20512;-69
2023/01/10 11:15:58;;;;;;;13.07;3.50;;;7.00;99.90;;;;;;5025933;28;20535;-70
2023/01/10 11:18:27;;;;;;;13.10;3.10;;;7.00;99.90;;;;;;5026194;28;20458;-70
2023/01/10 11:20:58;;;;;;;15.23;3.60;;;7.00;99.90;;;;;;5026768;28;20477;-69
2023/01/10 11:23:37;;;;;;;18.50;3.50;;;6.90;99.90;;;;;;5026956;28;20460;-70
2023/01/10 11:26:05;;;;;;;10.93;2.80;;;6.90;99.90;;;;;;5027207;28;20457;-69
2023/01/10 11:28:34;;;;;;;24.97;4.13;;;7.00;99.90;;;;;;5027107;28;20516;-70
2023/01/10 11:31:02;;;;;;;13.53;2.97;;;6.90;99.90;;;;;;5027675;28;20480;-69
2023/01/10 11:33:34;;;;;;;14.33;3.10;;;6.90;99.90;;;;;;5027213;28;20458;-69
2023/01/10 11:36:04;;;;;;;14.30;2.90;;;7.10;99.90;;;;;;5026761;28;20473;-70
2023/01/10 11:38:31;;;;;;;14.60;3.17;;;7.20;99.90;;;;;;5026968;28;20454;-70
2023/01/10 11:41:00;;;;;;;19.10;3.63;;;7.30;99.90;;;;;;5026228;28;20492;-70
2023/01/10 11:43:32;;;;;;;8.50;2.30;;;7.40;99.90;;;;;;5027574;28;20458;-70
2023/01/10 11:46:02;;;;;;;13.40;2.80;;;7.40;99.90;;;;;;5027351;28;20464;-70
2023/01/10 11:48:42;;;;;;;22.40;3.17;;;7.30;99.90;;;;;;5026340;28;20476;-70
2023/01/10 11:51:18;;;;;;;17.13;2.97;;;7.20;99.90;;;;;;5027281;28;20469;-70
2023/01/10 11:53:47;;;;;;;6.97;3.10;;;7.20;99.90;;;;;;5027234;28;20445;-70
2023/01/10 11:56:24;;;;;;;9.53;2.50;;;7.20;99.90;;;;;;5027174;28;20573;-70
2023/01/10 11:58:51;;;;;;;9.53;2.80;;;7.30;99.90;;;;;;5027151;28;20445;-70
2023/01/10 12:01:26;;;;;;;10.43;3.03;;;7.40;99.90;;;;;;5025723;28;20478;-70
2023/01/10 12:03:53;;;;;;;19.57;3.80;;;7.30;99.90;;;;;;5026006;28;21303;-70
2023/01/10 12:06:21;;;;;;;19.90;3.43;;;7.40;99.90;;;;;;5026580;28;21159;-70
2023/01/10 12:08:49;;;;;;;11.40;2.67;;;7.50;99.90;;;;;;5027185;28;20460;-70
2023/01/10 12:11:26;;;;;;;5.67;2.90;;;7.80;99.90;;;;;;5026220;28;20482;-70
2023/01/10 12:13:55;;;;;;;8.63;2.60;;;8.00;99.90;;;;;;5025939;28;20573;-70
2023/01/10 12:16:24;;;;;;;11.80;3.03;;;8.00;99.90;;;;;;5025534;28;20517;-71
2023/01/10 12:18:53;;;;;;;16.17;2.90;;;8.20;99.90;;;;;;5025729;28;20516;-70
2023/01/10 12:21:26;;;;;;;9.77;2.97;;;8.20;99.90;;;;;;5025533;28;21009;-70
2023/01/10 12:23:57;;;;;;;9.20;3.10;;;8.30;99.90;;;;;;5027227;28;20450;-71
2023/01/10 12:26:25;;;;;;;10.47;2.63;;;8.20;99.90;;;;;;5024999;28;20516;-71
2023/01/10 12:28:56;;;;;;;11.53;3.00;;;8.30;99.90;;;;;;5025899;28;20961;-71
2023/01/10 12:31:23;;;;;;;13.17;3.33;;;8.30;99.90;;;;;;5025658;28;21063;-71
2023/01/10 12:33:55;;;;;;;12.17;3.03;;;8.30;99.90;;;;;;5026811;28;20466;-70
2023/01/10 12:36:43;;;;;;;11.43;2.90;;;8.10;99.90;;;;;;5024994;28;20501;-70
2023/01/10 12:39:15;;;;;;;5.83;2.50;;;8.10;99.90;;;;;;5025038;28;20519;-70
2023/01/10 12:44:47;;;;;;;8.10;2.80;;;7.80;99.90;;;;;;5026165;28;20456;-71
2023/01/10 12:47:22;;;;;;;14.40;3.20;;;7.90;99.90;;;;;;5025375;28;20999;-71
2023/01/10 12:49:54;;;;;;;10.87;3.00;;;8.00;99.90;;;;;;5026170;28;20457;-70
2023/01/10 12:52:30;;;;;;;14.27;3.00;;;7.80;99.90;;;;;;5025916;28;20458;-70
2023/01/10 12:54:58;;;;;;;16.07;2.87;;;7.80;99.90;;;;;;5026169;28;20450;-70
2023/01/10 12:57:30;;;;;;;15.10;4.93;;;7.70;99.90;;;;;;5025393;28;20482;-70
2023/01/10 13:00:00;;;;;;;15.67;3.80;;;7.70;99.90;;;;;;5026588;28;20481;-71
2023/01/10 13:02:32;;;;;;;10.13;2.97;;;7.70;99.90;;;;;;5025578;28;20458;-70
2023/01/10 13:05:02;;;;;;;18.13;3.30;;;7.80;99.90;;;;;;5025319;28;20453;-70
2023/01/10 13:07:34;;;;;;;9.83;2.70;;;7.80;99.90;;;;;;5024275;28;20515;-70
2023/01/10 13:10:02;;;;;;;10.67;4.03;;;7.80;99.90;;;;;;5023548;28;20500;-70
2023/01/10 13:12:34;;;;;;;14.50;3.50;;;7.80;99.90;;;;;;5025810;28;20457;-71